createdAt,value
2023-04-11T00:01:56.117Z,100685.63
2023-04-11T00:04:29.008Z,100684.43
2023-04-11T00:07:01.681Z,100677.87
2023-04-11T00:09:33.976Z,100677.58
2023-04-11T00:12:07.496Z,100664.52
2023-04-11T00:14:45.543Z,100672.94
2023-04-11T00:17:18.182Z,100673.08
2023-04-11T00:19:53.301Z,100671.83
2023-04-11T00:22:27.952Z,100663.39
2023-04-11T00:25:00.360Z,100665.00
2023-04-11T00:27:32.669Z,100641.72
2023-04-11T00:30:06.894Z,100654.02
2023-04-11T00:32:39.241Z,100644.98
2023-04-11T00:35:13.029Z,100643.27
2023-04-11T00:37:45.712Z,100644.35
2023-04-11T00:40:18.839Z,100640.46
2023-04-11T00:42:51.169Z,100640.95
2023-04-11T00:45:23.394Z,100639.81
2023-04-11T00:47:56.348Z,100637.13
2023-04-11T00:50:29.377Z,100627.27
2023-04-11T00:53:01.904Z,100622.99
2023-04-11T00:55:34.217Z,100613.24
2023-04-11T00:58:08.388Z,100606.91
2023-04-11T01:00:41.645Z,100601.95
2023-04-11T01:03:14.945Z,100595.40
2023-04-11T01:05:48.338Z,100586.35
2023-04-11T01:08:22.648Z,100583.17
2023-04-11T01:10:54.092Z,100577.34
2023-04-11T01:13:26.958Z,100579.92
2023-04-11T01:15:59.481Z,100575.21
2023-04-11T01:18:32.335Z,100574.81
2023-04-11T01:21:05.822Z,100571.27
2023-04-11T01:23:38.232Z,100571.42
2023-04-11T01:26:10.664Z,100562.67
2023-04-11T01:28:43.099Z,100558.25
2023-04-11T01:31:15.668Z,100554.86
2023-04-11T01:33:48.339Z,100551.21
2023-04-11T01:36:20.759Z,100546.02
2023-04-11T01:38:53.093Z,100544.79
2023-04-11T01:41:26.662Z,100534.02
2023-04-11T01:43:59.611Z,100543.33
2023-04-11T01:46:32.158Z,100532.63
2023-04-11T01:49:07.914Z,100530.86
2023-04-11T01:51:41.175Z,100526.85
2023-04-11T01:54:13.473Z,100521.83
2023-04-11T01:56:46.427Z,100522.19
2023-04-11T01:59:19.628Z,100514.68
2023-04-11T02:01:52.437Z,100515.20
2023-04-11T02:04:24.974Z,100514.14
2023-04-11T02:06:57.202Z,100507.34
2023-04-11T02:09:29.545Z,100502.43
2023-04-11T02:12:02.040Z,100501.55
2023-04-11T02:14:44.584Z,100506.36
2023-04-11T02:17:18.963Z,100507.92
2023-04-11T02:19:51.910Z,100505.00
2023-04-11T02:22:24.301Z,100499.11
2023-04-11T02:24:56.483Z,100488.59
2023-04-11T02:27:28.810Z,100491.82
2023-04-11T02:30:05.817Z,100482.26
2023-04-11T02:32:39.055Z,100461.59
2023-04-11T02:35:12.549Z,100468.76
2023-04-11T02:37:45.572Z,100461.79
2023-04-11T02:40:18.144Z,100457.27
2023-04-11T02:42:50.681Z,100443.30
2023-04-11T02:45:23.827Z,100448.89
2023-04-11T02:47:56.256Z,100445.78
2023-04-11T02:50:28.887Z,100432.31
2023-04-11T02:53:01.819Z,100415.92
2023-04-11T02:55:35.265Z,100439.27
2023-04-11T02:58:07.520Z,100431.08
2023-04-11T03:00:41.909Z,100422.23
2023-04-11T03:03:13.572Z,100420.20
2023-04-11T03:05:50.198Z,100413.30
2023-04-11T03:08:26.223Z,100411.20
2023-04-11T03:10:58.939Z,100408.55
2023-04-11T03:13:32.170Z,100403.52
2023-04-11T03:16:05.303Z,100400.58
2023-04-11T03:18:37.848Z,100397.84
2023-04-11T03:21:12.528Z,100393.82
2023-04-11T03:23:48.261Z,100388.54
2023-04-11T03:26:20.698Z,100390.70
2023-04-11T03:28:53.847Z,100385.49
2023-04-11T03:31:26.425Z,100386.21
2023-04-11T03:33:59.818Z,100381.92
2023-04-11T03:36:32.684Z,100374.14
2023-04-11T03:39:08.155Z,100363.39
2023-04-11T03:41:42.088Z,100357.70
2023-04-11T03:44:17.532Z,100349.59
2023-04-11T03:46:50.934Z,100347.18
2023-04-11T03:49:24.819Z,100341.84
2023-04-11T03:52:01.603Z,100337.39
2023-04-11T03:54:34.399Z,100334.89
2023-04-11T03:57:07.605Z,100325.73
2023-04-11T03:59:40.429Z,100321.98
2023-04-11T04:02:16.119Z,100324.91
2023-04-11T04:04:58.596Z,100321.52
2023-04-11T04:07:35.502Z,100316.34
2023-04-11T04:10:27.857Z,100310.94
2023-04-11T04:13:00.753Z,100302.00
2023-04-11T04:15:40.854Z,100317.42
2023-04-11T04:18:13.969Z,100312.67
2023-04-11T04:20:50.721Z,100310.00
2023-04-11T04:23:24.113Z,100308.62
2023-04-11T04:26:25.253Z,100309.94
2023-04-11T04:29:18.391Z,100307.17
2023-04-11T04:31:57.067Z,100302.71
2023-04-11T04:34:38.156Z,100295.65
2023-04-11T04:37:21.602Z,100290.00
2023-04-11T04:39:55.235Z,100288.12
2023-04-11T04:42:34.445Z,100283.23
2023-04-11T04:45:10.309Z,100281.51
2023-04-11T04:47:43.622Z,100276.73
2023-04-11T04:50:16.570Z,100273.33
2023-04-11T04:52:50.365Z,100272.36
2023-04-11T04:55:23.083Z,100262.89
2023-04-11T04:57:55.751Z,100266.45
2023-04-11T05:00:28.692Z,100255.39
2023-04-11T05:03:06.022Z,100247.29
2023-04-11T05:05:39.251Z,100242.95
2023-04-11T05:08:12.250Z,100232.23
2023-04-11T05:10:45.522Z,100232.96
2023-04-11T05:13:18.358Z,100233.36
2023-04-11T05:15:54.383Z,100225.48
2023-04-11T05:18:29.813Z,100220.55
2023-04-11T05:21:01.539Z,100217.20
2023-04-11T05:23:41.439Z,100215.73
2023-04-11T05:26:14.628Z,100213.32
2023-04-11T05:28:47.022Z,100202.30
2023-04-11T05:31:22.968Z,100205.46
2023-04-11T05:33:57.381Z,100193.09
2023-04-11T05:36:34.852Z,100193.10
2023-04-11T05:39:08.113Z,100190.02
2023-04-11T05:41:40.648Z,100192.41
2023-04-11T05:44:12.943Z,100179.02
2023-04-11T05:46:46.049Z,100181.89
2023-04-11T05:49:19.332Z,100180.56
2023-04-11T05:51:51.967Z,100173.21
2023-04-11T05:54:35.425Z,100185.94
2023-04-11T05:57:08.269Z,100185.52
2023-04-11T05:59:40.740Z,100185.93
2023-04-11T06:02:12.970Z,100176.17
2023-04-11T06:04:46.042Z,100190.22
2023-04-11T06:07:18.479Z,100187.80
2023-04-11T06:09:51.126Z,100188.91
2023-04-11T06:12:23.495Z,100186.61
2023-04-11T06:14:55.944Z,100184.36
2023-04-11T06:17:28.294Z,100180.05
2023-04-11T06:20:02.902Z,100173.20
2023-04-11T06:22:36.251Z,100167.17
2023-04-11T06:25:09.552Z,100165.68
2023-04-11T06:27:41.901Z,100147.39
2023-04-11T06:30:14.822Z,100157.28
2023-04-11T06:32:46.952Z,100156.46
2023-04-11T06:35:20.462Z,100149.33
2023-04-11T06:37:53.341Z,100149.06
2023-04-11T06:40:25.830Z,100135.73
2023-04-11T06:43:00.444Z,100149.00
2023-04-11T06:45:32.613Z,100146.88
2023-04-11T06:48:05.141Z,100142.02
2023-04-11T06:50:41.156Z,100138.27
2023-04-11T06:53:13.411Z,100139.11
2023-04-11T06:55:49.051Z,100120.81
2023-04-11T06:58:21.485Z,100129.84
2023-04-11T07:00:53.747Z,100126.68
2023-04-11T07:03:26.555Z,100121.09
2023-04-11T07:05:58.794Z,100111.59
2023-04-11T07:08:31.745Z,100112.80
2023-04-11T07:11:04.563Z,100104.70
2023-04-11T07:13:36.807Z,100097.98
2023-04-11T07:16:10.701Z,100087.82
2023-04-11T07:18:43.145Z,100082.92
2023-04-11T07:21:18.187Z,100080.08
2023-04-11T07:23:52.809Z,100076.36
2023-04-11T07:26:24.174Z,100073.14
2023-04-11T07:28:56.819Z,100067.22
2023-04-11T07:31:28.885Z,100064.38
2023-04-11T07:34:01.358Z,100058.96
2023-04-11T07:36:34.410Z,100058.80
2023-04-11T07:39:09.488Z,100046.52
2023-04-11T07:41:42.064Z,100052.92
2023-04-11T07:44:14.314Z,100054.70
2023-04-11T07:46:46.494Z,100050.79
2023-04-11T07:49:18.714Z,100052.23
2023-04-11T07:51:51.126Z,100054.86
2023-04-11T07:54:25.297Z,100056.45
2023-04-11T07:56:58.111Z,100050.31
2023-04-11T07:59:30.300Z,100055.20
2023-04-11T08:02:04.509Z,100049.13
2023-04-11T08:04:38.394Z,100032.29
2023-04-11T08:07:11.529Z,100039.89
2023-04-11T08:09:44.050Z,100039.16
2023-04-11T08:12:16.917Z,100036.38
2023-04-11T08:14:49.068Z,100038.67
2023-04-11T08:17:28.183Z,100040.60
2023-04-11T08:20:02.285Z,100038.08
2023-04-11T08:22:35.638Z,100034.73
2023-04-11T08:25:09.911Z,100032.64
2023-04-11T08:27:42.490Z,100025.79
2023-04-11T08:30:16.461Z,100023.46
2023-04-11T08:32:48.612Z,100025.38
2023-04-11T08:35:21.059Z,100021.13
2023-04-11T08:37:53.808Z,100012.74
2023-04-11T08:40:27.152Z,100022.49
2023-04-11T08:43:02.882Z,100025.20
2023-04-11T08:45:35.214Z,100018.48
2023-04-11T08:48:07.991Z,100016.95
2023-04-11T08:50:41.769Z,100012.55
2023-04-11T08:53:15.843Z,100007.28
2023-04-11T08:55:51.700Z,100012.49
2023-04-11T08:58:23.965Z,100002.58
2023-04-11T09:00:56.467Z,100012.21
2023-04-11T09:03:28.766Z,100012.06
2023-04-11T09:06:12.129Z,100008.59
2023-04-11T09:08:44.476Z,100010.66
2023-04-11T09:11:16.762Z,100007.95
2023-04-11T09:13:49.429Z,100005.72
2023-04-11T09:16:22.091Z,100004.20
2023-04-11T09:18:54.525Z,99999.33
2023-04-11T09:21:28.179Z,99989.39
2023-04-11T09:24:16.562Z,99988.98
2023-04-11T09:26:49.001Z,99985.66
2023-04-11T09:29:39.060Z,99984.34
2023-04-11T09:32:32.445Z,99989.69
2023-04-11T09:35:16.797Z,99984.76
2023-04-11T09:37:52.246Z,99972.59
2023-04-11T09:40:27.056Z,99973.52
2023-04-11T09:43:01.745Z,99969.52
2023-04-11T09:45:44.234Z,99971.77
2023-04-11T09:48:39.515Z,99967.52
2023-04-11T09:51:34.296Z,99966.98
2023-04-11T09:54:08.233Z,99961.82
2023-04-11T09:56:40.715Z,99951.28
2023-04-11T09:59:13.766Z,99948.79
2023-04-11T10:01:47.175Z,99947.56
2023-04-11T10:04:20.661Z,99948.23
2023-04-11T10:07:02.349Z,99947.98
2023-04-11T10:09:38.871Z,99946.77
2023-04-11T10:12:11.004Z,99946.92
2023-04-11T10:14:47.136Z,99942.08
2023-04-11T10:17:23.986Z,99945.83
2023-04-11T10:19:58.930Z,99947.59
2023-04-11T10:23:02.047Z,99943.64
2023-04-11T10:25:49.087Z,99949.98
2023-04-11T10:28:38.874Z,99947.11
2023-04-11T10:31:14.420Z,99941.65
2023-04-11T10:34:16.110Z,99934.69
2023-04-11T10:37:05.124Z,99937.39
2023-04-11T10:40:10.478Z,99934.90
2023-04-11T10:42:44.469Z,99937.06
2023-04-11T10:45:27.667Z,99936.10
2023-04-11T10:48:13.613Z,99947.14
2023-04-11T10:50:46.746Z,99948.45
2023-04-11T10:53:38.577Z,99951.21
2023-04-11T10:56:10.753Z,99954.73
2023-04-11T10:58:43.085Z,99947.42
2023-04-11T11:01:32.379Z,99950.07
2023-04-11T11:04:10.828Z,99963.48
2023-04-11T11:06:51.114Z,99964.25
2023-04-11T11:09:28.804Z,99968.18
2023-04-11T11:12:12.160Z,99966.91
2023-04-11T11:14:46.062Z,99969.63
2023-04-11T11:17:19.908Z,99963.19
2023-04-11T11:19:52.549Z,99962.58
2023-04-11T11:22:26.457Z,99956.84
2023-04-11T11:25:10.452Z,99956.60
2023-04-11T11:27:42.655Z,99962.02
2023-04-11T11:30:16.808Z,99960.36
2023-04-11T11:32:48.888Z,99959.13
2023-04-11T11:35:21.770Z,99960.13
2023-04-11T11:37:55.065Z,99963.73
2023-04-11T11:40:28.681Z,99970.46
2023-04-11T11:43:01.008Z,99978.30
2023-04-11T11:45:33.625Z,99964.51
2023-04-11T11:48:06.029Z,99942.42
2023-04-11T11:50:39.119Z,99981.54
2023-04-11T11:53:17.768Z,99981.17
2023-04-11T11:55:50.072Z,99974.09
2023-04-11T11:58:23.049Z,99963.48
2023-04-11T12:00:55.827Z,99972.10
2023-04-11T12:03:29.770Z,99974.17
2023-04-11T12:06:02.260Z,99969.83
2023-04-11T12:08:41.536Z,99974.64
2023-04-11T12:11:15.848Z,99967.66
2023-04-11T12:13:52.840Z,99966.54
2023-04-11T12:16:28.243Z,99965.77
2023-04-11T12:19:03.512Z,99963.55
2023-04-11T12:21:36.397Z,99971.00
2023-04-11T12:24:10.807Z,99968.95
2023-04-11T12:26:57.383Z,99973.73
2023-04-11T12:29:35.008Z,99978.44
2023-04-11T12:32:07.360Z,99978.14
2023-04-11T12:34:39.842Z,99983.77
2023-04-11T12:37:12.098Z,99993.13
2023-04-11T12:39:44.268Z,99988.52
2023-04-11T12:42:18.649Z,99989.69
2023-04-11T12:44:53.148Z,99994.32
2023-04-11T12:47:25.440Z,99994.04
2023-04-11T12:49:58.062Z,99995.15
2023-04-11T12:52:30.702Z,99992.61
2023-04-11T12:55:03.824Z,99995.42
2023-04-11T12:57:37.172Z,100002.29
2023-04-11T13:00:13.480Z,100007.50
2023-04-11T13:02:45.893Z,100005.98
2023-04-11T13:05:19.893Z,100014.88
2023-04-11T13:07:52.188Z,100011.13
2023-04-11T13:10:25.334Z,100009.45
2023-04-11T13:13:00.656Z,100004.65
2023-04-11T13:15:38.545Z,100003.05
2023-04-11T13:18:11.221Z,100004.04
2023-04-11T13:20:43.549Z,100005.98
2023-04-11T13:23:17.337Z,100006.22
2023-04-11T13:25:50.163Z,100003.48
2023-04-11T13:28:22.510Z,99992.19
2023-04-11T13:30:54.538Z,100003.21
2023-04-11T13:33:27.301Z,100005.09
2023-04-11T13:35:59.812Z,100003.65
2023-04-11T13:38:32.225Z,100004.60
2023-04-11T13:41:04.744Z,100002.84
2023-04-11T13:43:36.962Z,100012.19
2023-04-11T13:46:09.612Z,100021.80
2023-04-11T13:48:41.970Z,100023.16
2023-04-11T13:51:14.906Z,100028.35
2023-04-11T13:53:47.457Z,100005.48
2023-04-11T13:56:20.619Z,100036.10
2023-04-11T13:58:52.772Z,100034.15
2023-04-11T14:01:25.224Z,100034.12
2023-04-11T14:03:57.981Z,100031.58
2023-04-11T14:06:30.426Z,100033.40
2023-04-11T14:09:05.315Z,100033.23
2023-04-11T14:11:36.154Z,100030.46
2023-04-11T14:14:08.437Z,100031.00
2023-04-11T14:16:40.791Z,100029.83
2023-04-11T14:19:13.310Z,100033.91
2023-04-11T14:21:46.558Z,100035.67
2023-04-11T14:24:22.424Z,100035.19
2023-04-11T14:26:54.913Z,100038.69
2023-04-11T14:29:27.297Z,100040.71
2023-04-11T14:31:59.631Z,100033.37
2023-04-11T14:34:32.028Z,100046.19
2023-04-11T14:37:04.599Z,100045.95
2023-04-11T14:39:39.057Z,100048.38
2023-04-11T14:42:11.303Z,100046.34
2023-04-11T14:44:43.792Z,100049.05
2023-04-11T14:47:16.265Z,100047.02
2023-04-11T14:49:48.567Z,100052.67
2023-04-11T14:52:21.163Z,100050.81
2023-04-11T14:54:53.832Z,100054.25
2023-04-11T14:57:26.487Z,100053.51
2023-04-11T15:00:01.807Z,100048.11
2023-04-11T15:02:34.144Z,100050.02
2023-04-11T15:05:08.385Z,100039.14
2023-04-11T15:07:40.589Z,100037.14
2023-04-11T15:10:13.596Z,100026.50
2023-04-11T15:12:45.740Z,100025.52
2023-04-11T15:15:18.250Z,100027.25
2023-04-11T15:18:11.168Z,100021.46
2023-04-11T15:20:43.477Z,100020.85
2023-04-11T15:23:15.904Z,100018.20
2023-04-11T15:25:53.236Z,100020.23
2023-04-11T15:28:26.700Z,100014.11
2023-04-11T15:30:59.406Z,100004.20
2023-04-11T15:33:32.483Z,100019.96
2023-04-11T15:36:05.627Z,100014.42
2023-04-11T15:38:38.182Z,100010.48
2023-04-11T15:41:10.762Z,100012.19
2023-04-11T15:43:42.909Z,100014.31
2023-04-11T15:46:16.267Z,100007.97
2023-04-11T15:48:48.499Z,100001.34
2023-04-11T15:51:20.861Z,99994.12
2023-04-11T15:55:04.501Z,99998.02
2023-04-11T16:02:34.140Z,99999.46
2023-04-11T16:05:07.982Z,99997.98
2023-04-11T16:07:40.806Z,100000.21
2023-04-11T16:10:13.411Z,100005.40
2023-04-11T16:12:45.773Z,100006.10
2023-04-11T16:15:19.148Z,100008.08
2023-04-11T16:17:51.615Z,100008.29
2023-04-11T16:20:24.346Z,100013.25
2023-04-11T16:22:56.540Z,100014.77
2023-04-11T16:25:29.235Z,100015.05
2023-04-11T16:28:01.614Z,100015.42
2023-04-11T16:30:33.914Z,100017.84
2023-04-11T16:33:07.082Z,100019.14
2023-04-11T16:35:39.980Z,100016.52
2023-04-11T16:38:12.152Z,100015.08
2023-04-11T16:40:44.821Z,100015.56
2023-04-11T16:43:17.199Z,100015.73
2023-04-11T16:45:49.359Z,100020.54
2023-04-11T16:48:21.792Z,100023.46
2023-04-11T16:50:53.920Z,100031.58
2023-04-11T16:53:26.107Z,100034.11
2023-04-11T16:55:59.475Z,100037.30
2023-04-11T16:58:32.380Z,100034.20
2023-04-11T17:01:04.965Z,100029.14
2023-04-11T17:03:37.932Z,100040.50
2023-04-11T17:06:15.489Z,100053.42
2023-04-11T17:08:47.915Z,100056.36
2023-04-11T17:11:20.464Z,100064.07
2023-04-11T17:13:54.869Z,100061.70
2023-04-11T17:16:27.421Z,100057.63
2023-04-11T17:18:59.604Z,100055.73
2023-04-11T17:21:31.989Z,100058.62
2023-04-11T17:24:05.089Z,100024.89
2023-04-11T17:26:37.450Z,100059.88
2023-04-11T17:29:11.186Z,100067.94
2023-04-11T17:31:43.443Z,100073.89
2023-04-11T17:34:16.168Z,100081.83
2023-04-11T17:36:48.727Z,100082.60
2023-04-11T17:39:21.421Z,100083.85
2023-04-11T17:41:53.751Z,100078.64
2023-04-11T17:44:26.070Z,100076.09
2023-04-11T17:46:58.452Z,100072.52
2023-04-11T17:49:30.872Z,100076.81
2023-04-11T17:52:03.305Z,100062.77
2023-04-11T17:54:36.181Z,100079.27
2023-04-11T17:57:08.496Z,100084.89
2023-04-11T17:59:40.931Z,100074.39
2023-04-11T18:02:13.327Z,100087.33
2023-04-11T18:04:46.644Z,100087.70
2023-04-11T18:07:19.155Z,100097.09
2023-04-11T18:09:51.627Z,100101.48
2023-04-11T18:12:29.796Z,100103.36
2023-04-11T18:15:02.582Z,100104.66
2023-04-11T18:17:35.954Z,100107.74
2023-04-11T18:20:11.025Z,100108.17
2023-04-11T18:22:45.615Z,100107.69
2023-04-11T18:25:18.284Z,100093.83
2023-04-11T18:27:50.632Z,100113.10
2023-04-11T18:30:22.871Z,100105.95
2023-04-11T18:32:55.794Z,100124.98
2023-04-11T18:35:28.847Z,100126.41
2023-04-11T18:38:02.589Z,100125.15
2023-04-11T18:40:35.413Z,100125.14
2023-04-11T18:43:08.260Z,100130.82
2023-04-11T18:45:42.246Z,100134.27
2023-04-11T18:48:15.223Z,100129.19
2023-04-11T18:50:48.854Z,100130.96
2023-04-11T18:53:21.201Z,100140.86
2023-04-11T18:55:54.520Z,100145.70
2023-04-11T18:58:29.512Z,100150.14
2023-04-11T19:01:14.700Z,100141.61
2023-04-11T19:03:49.280Z,100153.83
2023-04-11T19:06:22.384Z,100153.64
2023-04-11T19:08:55.202Z,100153.66
2023-04-11T19:11:27.939Z,100153.63
2023-04-11T19:14:01.526Z,100143.48
2023-04-11T19:16:34.304Z,100154.46
2023-04-11T19:19:06.827Z,100152.64
2023-04-11T19:21:39.006Z,100153.76
2023-04-11T19:24:11.473Z,100154.81
2023-04-11T19:26:43.864Z,100159.52
2023-04-11T19:29:17.650Z,100158.08
2023-04-11T19:31:51.350Z,100157.73
2023-04-11T19:34:23.556Z,100160.02
2023-04-11T19:36:56.320Z,100159.02
2023-04-11T19:39:35.563Z,100145.34
2023-04-11T19:42:10.252Z,100159.98
2023-04-11T19:44:42.666Z,100157.10
2023-04-11T19:47:15.666Z,100161.67
2023-04-11T19:49:48.101Z,100161.10
2023-04-11T19:52:20.267Z,100145.73
2023-04-11T19:54:52.967Z,100159.88
2023-04-11T19:57:27.637Z,100164.54
2023-04-11T19:59:58.419Z,100163.27
2023-04-11T20:02:30.782Z,100162.20
2023-04-11T20:05:03.144Z,100160.75
2023-04-11T20:07:39.126Z,100158.50
2023-04-11T20:10:13.902Z,100160.89
2023-04-11T20:12:46.787Z,100159.02
2023-04-11T20:15:19.017Z,100165.81
2023-04-11T20:17:51.285Z,100163.88
2023-04-11T20:20:27.925Z,100140.95
2023-04-11T20:23:05.043Z,100163.24
2023-04-11T20:25:37.662Z,100163.11
2023-04-11T20:28:10.765Z,100164.77
2023-04-11T20:30:43.300Z,100165.24
2023-04-11T20:33:15.827Z,100167.34
2023-04-11T20:35:52.565Z,100170.57
2023-04-11T20:38:26.521Z,100177.06
2023-04-11T20:41:03.604Z,100174.12
2023-04-11T20:43:37.726Z,100177.73
2023-04-11T20:46:13.491Z,100180.95
2023-04-11T20:48:46.146Z,100181.81
2023-04-11T20:51:18.692Z,100170.13
2023-04-11T20:53:51.125Z,100186.41
2023-04-11T20:56:23.752Z,100187.27
2023-04-11T20:58:56.180Z,100183.37
2023-04-11T21:01:32.468Z,100188.88
2023-04-11T21:04:05.111Z,100186.66
2023-04-11T21:06:37.612Z,100186.84
2023-04-11T21:09:10.821Z,100190.74
2023-04-11T21:11:43.582Z,100193.89
2023-04-11T21:14:16.126Z,100192.45
2023-04-11T21:16:50.073Z,100196.53
2023-04-11T21:19:22.368Z,100200.23
2023-04-11T21:21:54.486Z,100198.48
2023-04-11T21:24:27.235Z,100200.21
2023-04-11T21:26:59.519Z,100204.06
2023-04-11T21:29:31.896Z,100205.02
2023-04-11T21:32:03.975Z,100209.54
2023-04-11T21:34:36.329Z,100198.80
2023-04-11T21:37:08.413Z,100197.13
2023-04-11T21:39:40.837Z,100197.08
2023-04-11T21:42:13.330Z,100198.65
2023-04-11T21:44:45.711Z,100196.52
2023-04-11T21:47:18.156Z,100200.23
2023-04-11T21:49:50.520Z,100200.89
2023-04-11T21:52:22.589Z,100203.88
2023-04-11T21:54:54.756Z,100205.95
2023-04-11T21:57:27.133Z,100188.77
2023-04-11T21:59:59.444Z,100195.39
2023-04-11T22:02:32.046Z,100196.03
2023-04-11T22:05:07.272Z,100197.20
2023-04-11T22:07:47.539Z,100195.94
2023-04-11T22:10:32.431Z,100199.04
2023-04-11T22:13:10.433Z,100199.67
2023-04-11T22:15:42.916Z,100202.17
2023-04-11T22:18:16.077Z,100202.77
2023-04-11T22:20:48.717Z,100190.48
2023-04-11T22:23:21.694Z,100198.99
2023-04-11T22:25:59.412Z,100206.86
2023-04-11T22:28:33.298Z,100203.70
2023-04-11T22:31:05.745Z,100209.65
2023-04-11T22:33:38.010Z,100209.68
2023-04-11T22:36:12.329Z,100206.16
2023-04-11T22:38:45.647Z,100209.98
2023-04-11T22:41:22.138Z,100211.90
2023-04-11T22:43:54.953Z,100217.44
2023-04-11T22:46:27.592Z,100216.17
2023-04-11T22:48:59.897Z,100219.21
2023-04-11T22:51:32.690Z,100221.88
2023-04-11T22:54:05.152Z,100220.02
2023-04-11T22:56:37.429Z,100217.30
2023-04-11T22:59:09.736Z,100217.16
2023-04-11T23:01:44.844Z,100213.29
2023-04-11T23:04:17.244Z,100214.49
2023-04-11T23:06:51.322Z,100214.06
2023-04-11T23:09:23.979Z,100215.84
2023-04-11T23:11:56.622Z,100199.34
2023-04-11T23:14:31.496Z,100194.38
2023-04-11T23:17:02.328Z,100206.61
2023-04-11T23:19:35.344Z,100202.46
2023-04-11T23:22:07.809Z,100199.28
2023-04-11T23:24:40.117Z,100198.98
2023-04-11T23:27:12.425Z,100194.65
2023-04-11T23:29:49.342Z,100196.71
2023-04-11T23:32:22.434Z,100194.61
2023-04-11T23:34:54.637Z,100199.53
2023-04-11T23:37:27.533Z,100193.34
2023-04-11T23:40:00.326Z,100188.36
2023-04-11T23:42:33.007Z,100191.34
2023-04-11T23:45:06.113Z,100188.81
2023-04-11T23:47:39.056Z,100187.73
2023-04-11T23:50:13.848Z,100183.71
2023-04-11T23:52:44.820Z,100183.59
2023-04-11T23:55:17.232Z,100174.63
2023-04-11T23:57:49.719Z,100160.19
